Weather at Taylor Airport

Public forecast

Using degrees Fahrenheit for public forecast. Weather courtesy of forecast.io.

Closest aviation weather report (METAR) to Taylor Airport

Closest report is Wallops Flight Facility Airport, 4.0 nm (7.5 km) NNE. Retrieved 2021/06/23 00:54 UTC (54 minutes ago):

KWAL 230054Z 31005KT 10SM CLR 18/17 A2993 RMK AO2 SLP133 T01830172

Closest aviation forecast (TAF) to Taylor Airport

Closest forecast is Salisbury Ocean City Wicomico Regional Airport, 27.6 nm (51.1 km) N. Retrieved 2021-06-23 00:22 UTC (1 hour ago):

TAF KSBY 222320Z 2300/2324 30005KT P6SM BKN100 FM230400 33004KT P6SM BKN250 FM230900 36004KT P6SM SCT250 FM231500 02009KT P6SM SKC FM232100 06006KT P6SM SKC